Time;durP1;ratioP1;P1;durP2;ratioP2;P2;SDS_P1;SDS_P2;PMS_P1;PMS_P2;Temp;Humidity;BMP_temperature;BMP_pressure;BME280_temperature;BME280_humidity;BME280_pressure;Samples;Min_cycle;Max_cycle;Signal;HPM_P1;HPM_P2
2023/12/08 00:00:09;;;;;;;;;;;;;;;0.91;100.00;100705.09;5032323;28;19920;-74
2023/12/08 00:02:35;;;;;;;;;;;;;;;0.87;100.00;100700.69;5050223;28;19921;-75
2023/12/08 00:05:00;;;;;;;;;;;;;;;0.82;100.00;100704.84;5037298;28;19960;-74
2023/12/08 00:07:26;;;;;;;;;;;;;;;0.82;100.00;100699.69;5054808;28;19948;-75
2023/12/08 00:09:51;;;;;;;;;;;;;;;0.83;100.00;100680.81;5037103;28;19924;-73
2023/12/08 00:12:37;;;;;;;;;;;;;;;0.86;100.00;100670.56;5032601;28;20352;-75
2023/12/08 00:15:03;;;;;;;;;;;;;;;0.84;100.00;100659.34;5049499;28;20393;-75
2023/12/08 00:17:28;;;;;;;;;;;;;;;0.92;100.00;100681.06;5047565;28;20008;-75
2023/12/08 00:19:53;;;;;;;;;;;;;;;0.88;100.00;100684.38;5034328;28;20396;-74
2023/12/08 00:22:19;;;;;;;;;;;;;;;0.87;100.00;100674.88;5025019;28;19920;-74
2023/12/08 00:24:46;;;;;;;;;;;;;;;0.83;100.00;100670.47;5023915;28;20062;-75
2023/12/08 00:27:11;;;;;;;;;;;;;;;0.84;100.00;100678.25;5042816;28;20011;-75
2023/12/08 00:29:36;;;;;;;;;;;;;;;0.83;100.00;100675.66;5036234;28;19952;-75
2023/12/08 00:32:01;;;;;;;;;;;;;;;0.85;100.00;100679.16;5053790;28;19916;-74
2023/12/08 00:34:27;;;;;;;;;;;;;;;0.81;100.00;100667.00;5023890;28;19921;-75
2023/12/08 00:36:52;;;;;;;;;;;;;;;0.88;100.00;100668.91;5041621;28;19943;-75
2023/12/08 00:39:18;;;;;;;;;;;;;;;0.84;100.00;100667.06;5048098;28;19921;-75
2023/12/08 00:41:44;;;;;;;;;;;;;;;0.81;100.00;100660.13;5045476;28;20393;-74
2023/12/08 00:44:09;;;;;;;;;;;;;;;0.82;100.00;100659.31;5033540;28;19917;-74
2023/12/08 00:46:34;;;;;;;;;;;;;;;0.87;100.00;100662.00;5034080;28;20297;-74
2023/12/08 00:48:59;;;;;;;;;;;;;;;0.88;100.00;100650.84;5055142;28;19920;-74
2023/12/08 00:51:25;;;;;;;;;;;;;;;0.86;100.00;100655.06;5040168;28;20006;-75
2023/12/08 00:53:51;;;;;;;;;;;;;;;0.89;100.00;100659.44;5074795;28;19920;-75
2023/12/08 00:56:19;;;;;;;;;;;;;;;0.91;100.00;100662.97;5056493;28;19917;-75
2023/12/08 00:58:44;;;;;;;;;;;;;;;0.96;100.00;100657.06;5034624;28;19920;-75
2023/12/08 01:01:09;;;;;;;;;;;;;;;0.91;100.00;100656.06;5038598;28;19927;-74
2023/12/08 01:03:35;;;;;;;;;;;;;;;1.08;100.00;100655.59;5051104;28;19967;-75
2023/12/08 01:06:00;;;;;;;;;;;;;;;1.00;100.00;100653.72;5049509;28;19925;-74
2023/12/08 01:08:26;;;;;;;;;;;;;;;1.06;100.00;100650.41;5056642;28;19920;-74
2023/12/08 01:10:51;;;;;;;;;;;;;;;1.03;100.00;100655.50;5028648;28;19921;-74
2023/12/08 01:13:16;;;;;;;;;;;;;;;1.02;100.00;100652.06;5072250;28;20140;-74
2023/12/08 01:15:41;;;;;;;;;;;;;;;1.02;100.00;100651.16;5027029;28;19964;-74
2023/12/08 01:18:09;;;;;;;;;;;;;;;1.05;100.00;100643.53;5042126;28;19913;-74
2023/12/08 01:20:36;;;;;;;;;;;;;;;1.04;100.00;100640.03;5037448;28;19920;-75
2023/12/08 01:23:01;;;;;;;;;;;;;;;1.06;100.00;100631.47;5056067;28;19923;-75
2023/12/08 01:25:26;;;;;;;;;;;;;;;1.03;100.00;100628.00;5073932;28;19924;-74
2023/12/08 01:27:53;;;;;;;;;;;;;;;1.03;100.00;100628.00;5026662;28;20371;-75
2023/12/08 01:30:21;;;;;;;;;;;;;;;1.02;100.00;100618.50;5066425;28;19912;-75
2023/12/08 01:32:47;;;;;;;;;;;;;;;1.03;100.00;100628.00;5025957;28;19928;-75
2023/12/08 01:35:15;;;;;;;;;;;;;;;1.05;100.00;100630.63;5056198;28;19916;-75
2023/12/08 01:37:40;;;;;;;;;;;;;;;1.08;100.00;100628.09;5072677;28;20003;-75
2023/12/08 01:40:06;;;;;;;;;;;;;;;1.08;100.00;100625.53;5030518;28;20043;-75
2023/12/08 01:42:32;;;;;;;;;;;;;;;1.08;100.00;100620.34;5040477;28;20348;-75
2023/12/08 01:44:58;;;;;;;;;;;;;;;1.10;100.00;100617.81;5049005;28;19931;-74
2023/12/08 01:47:23;;;;;;;;;;;;;;;1.09;100.00;100610.91;5019177;28;19925;-75
2023/12/08 01:49:49;;;;;;;;;;;;;;;1.06;100.00;100614.28;5025589;28;20007;-75
2023/12/08 01:52:20;;;;;;;;;;;;;;;1.06;100.00;100608.25;5032828;28;19923;-74
2023/12/08 01:54:45;;;;;;;;;;;;;;;1.08;100.00;100603.97;5067389;28;20022;-74
2023/12/08 01:57:11;;;;;;;;;;;;;;;1.03;100.00;100612.53;5073389;28;19916;-74
2023/12/08 01:59:37;;;;;;;;;;;;;;;0.98;100.00;100608.94;5050652;28;19925;-74
2023/12/08 02:02:02;;;;;;;;;;;;;;;0.99;100.00;100607.22;5048651;28;20332;-74
2023/12/08 02:04:27;;;;;;;;;;;;;;;0.96;100.00;100600.31;5048770;28;20366;-74
2023/12/08 02:06:54;;;;;;;;;;;;;;;0.97;100.00;100594.28;5049183;28;20044;-73
2023/12/08 02:09:20;;;;;;;;;;;;;;;0.92;100.00;100592.44;5038929;28;19916;-74
2023/12/08 02:11:45;;;;;;;;;;;;;;;0.89;100.00;100589.78;5041407;28;19991;-74
2023/12/08 02:14:15;;;;;;;;;;;;;;;0.87;100.00;100582.00;5068955;28;19921;-74
2023/12/08 02:16:43;;;;;;;;;;;;;;;0.87;100.00;100584.59;5038997;28;19913;-73
2023/12/08 02:19:12;;;;;;;;;;;;;;;0.84;100.00;100575.06;5054894;28;20322;-73
2023/12/08 02:21:37;;;;;;;;;;;;;;;0.87;100.00;100574.28;5046576;28;20015;-73
2023/12/08 02:24:04;;;;;;;;;;;;;;;0.88;100.00;100563.13;5026930;28;20445;-73
2023/12/08 02:26:30;;;;;;;;;;;;;;;0.85;100.00;100565.66;5072155;28;19967;-73
2023/12/08 02:28:55;;;;;;;;;;;;;;;0.86;100.00;100560.50;5037752;28;19948;-73
2023/12/08 02:31:24;;;;;;;;;;;;;;;0.86;100.00;100559.63;5043709;28;19923;-73
2023/12/08 02:33:51;;;;;;;;;;;;;;;0.83;100.00;100534.66;5040482;28;19917;-73
2023/12/08 02:36:17;;;;;;;;;;;;;;;0.89;100.00;100539.09;5043580;28;20281;-73
2023/12/08 02:38:43;;;;;;;;;;;;;;;0.85;100.00;100545.00;5037188;28;19924;-73
2023/12/08 02:41:09;;;;;;;;;;;;;;;0.83;100.00;100541.50;5054854;28;19919;-73
2023/12/08 02:43:34;;;;;;;;;;;;;;;0.80;100.00;100541.44;5055159;28;19913;-73
2023/12/08 02:46:00;;;;;;;;;;;;;;;0.78;100.00;100546.56;5038426;28;20301;-73
2023/12/08 02:48:25;;;;;;;;;;;;;;;0.78;100.00;100537.97;5036725;28;19929;-74
2023/12/08 02:50:51;;;;;;;;;;;;;;;0.78;100.00;100537.97;5041436;28;19923;-74
2023/12/08 02:53:16;;;;;;;;;;;;;;;0.75;100.00;100543.91;5050231;28;19920;-74
2023/12/08 02:55:42;;;;;;;;;;;;;;;0.76;100.00;100542.19;5031616;28;19913;-74
2023/12/08 02:58:07;;;;;;;;;;;;;;;0.76;100.00;100518.97;5044088;28;20054;-74
2023/12/08 03:00:32;;;;;;;;;;;;;;;0.77;100.00;100525.91;5031921;28;19971;-73
2023/12/08 03:02:58;;;;;;;;;;;;;;;0.77;100.00;100528.47;5027953;28;19973;-73
2023/12/08 03:05:23;;;;;;;;;;;;;;;0.77;100.00;100526.75;5034439;28;19928;-74
2023/12/08 03:07:48;;;;;;;;;;;;;;;0.78;100.00;100525.94;5037399;28;19923;-74
2023/12/08 03:10:14;;;;;;;;;;;;;;;0.77;100.00;100520.72;5041083;28;19920;-74
2023/12/08 03:12:39;;;;;;;;;;;;;;;0.80;100.00;100537.13;5035833;28;20314;-74
2023/12/08 03:15:05;;;;;;;;;;;;;;;0.81;100.00;100532.88;5034845;28;19917;-73
2023/12/08 03:41:36;;;;;;;;;;;;;;;0.93;100.00;100533.13;2743725;22;19928;-74
2023/12/08 03:54:21;;;;;;;;;;;;;;;1.21;100.00;100513.09;1468466;22;20228;-74
2023/12/08 04:10:49;;;;;;;;;;;;;;;0.98;100.00;100498.00;653005;22;21379;-74
2023/12/08 04:13:15;;;;;;;;;;;;;;;0.94;100.00;100503.06;5052041;28;19929;-74
2023/12/08 04:15:40;;;;;;;;;;;;;;;0.98;100.00;100505.72;5061495;28;19920;-74
2023/12/08 04:18:05;;;;;;;;;;;;;;;1.04;100.00;100495.53;5050856;28;20262;-74
2023/12/08 04:20:31;;;;;;;;;;;;;;;1.09;100.00;100507.66;5034121;28;19940;-74
2023/12/08 04:22:56;;;;;;;;;;;;;;;0.96;100.00;100503.94;5032702;28;20421;-74
2023/12/08 04:25:22;;;;;;;;;;;;;;;1.00;100.00;100506.63;5034309;28;19929;-74
2023/12/08 04:27:48;;;;;;;;;;;;;;;1.06;100.00;100512.78;5032225;28;20018;-74
2023/12/08 04:30:13;;;;;;;;;;;;;;;1.02;100.00;100507.53;5052232;28;19928;-74
2023/12/08 04:32:38;;;;;;;;;;;;;;;1.01;100.00;100492.91;5050403;28;19921;-74
2023/12/08 04:35:04;;;;;;;;;;;;;;;0.91;100.00;100488.38;5033559;28;20564;-74
2023/12/08 04:37:29;;;;;;;;;;;;;;;1.02;100.00;100492.06;5050845;28;19992;-75
2023/12/08 04:42:57;;;;;;;;;;;;;;;1.01;100.00;100499.78;5036061;28;19920;-74
2023/12/08 04:45:22;;;;;;;;;;;;;;;0.93;100.00;100497.00;5051210;28;19917;-74
2023/12/08 04:47:48;;;;;;;;;;;;;;;1.12;100.00;100518.94;5051369;28;20462;-75
2023/12/08 04:50:13;;;;;;;;;;;;;;;1.04;100.00;100515.31;5050558;28;19913;-75
2023/12/08 04:52:38;;;;;;;;;;;;;;;1.21;100.00;100502.78;5051055;28;19917;-74
2023/12/08 04:55:07;;;;;;;;;;;;;;;1.14;100.00;100488.00;5050621;28;19917;-74
2023/12/08 04:57:32;;;;;;;;;;;;;;;1.15;100.00;100482.88;5049368;28;19913;-74
2023/12/08 04:59:59;;;;;;;;;;;;;;;1.07;100.00;100493.88;5049482;28;19967;-75
2023/12/08 05:02:26;;;;;;;;;;;;;;;1.18;100.00;100497.56;5050198;28;19913;-75
2023/12/08 05:04:51;;;;;;;;;;;;;;;1.09;100.00;100495.63;5050627;28;20386;-74
2023/12/08 05:07:16;;;;;;;;;;;;;;;1.17;100.00;100493.22;5052306;28;19991;-74
2023/12/08 05:09:42;;;;;;;;;;;;;;;1.20;100.00;100493.28;5037242;28;19971;-73
2023/12/08 05:15:11;;;;;;;;;;;;;;;1.25;100.00;100486.53;5015604;28;19964;-74
2023/12/08 05:17:38;;;;;;;;;;;;;;;1.25;100.00;100489.09;5017136;28;20354;-74
2023/12/08 05:20:04;;;;;;;;;;;;;;;1.30;100.00;100496.94;5049642;28;20286;-74
2023/12/08 05:22:48;;;;;;;;;;;;;;;1.29;100.00;100484.84;5050041;28;19917;-74
2023/12/08 05:25:13;;;;;;;;;;;;;;;1.26;100.00;100477.06;5058291;28;19924;-74
2023/12/08 05:27:39;;;;;;;;;;;;;;;1.35;100.00;100478.13;5049885;28;19917;-75
2023/12/08 05:30:05;;;;;;;;;;;;;;;1.29;100.00;100472.81;5049623;28;20381;-75
2023/12/08 05:32:30;;;;;;;;;;;;;;;1.28;100.00;100477.94;5050009;28;19917;-75
2023/12/08 05:34:57;;;;;;;;;;;;;;;1.25;100.00;100477.88;5049875;28;19967;-75
2023/12/08 05:37:22;;;;;;;;;;;;;;;1.43;100.00;100486.00;5033783;28;19979;-74
2023/12/08 05:40:09;;;;;;;;;;;;;;;1.35;100.00;100491.03;5031270;28;19924;-74
2023/12/08 05:42:35;;;;;;;;;;;;;;;1.44;100.00;100504.94;5033926;28;20282;-73
2023/12/08 05:45:00;;;;;;;;;;;;;;;1.38;100.00;100501.41;5048579;28;19925;-73
2023/12/08 05:47:25;;;;;;;;;;;;;;;1.60;100.00;100506.13;5032653;28;19988;-74
2023/12/08 05:49:51;;;;;;;;;;;;;;;1.45;100.00;100507.59;5049208;28;19921;-74
2023/12/08 05:52:18;;;;;;;;;;;;;;;1.58;100.00;100511.28;5032689;28;19922;-74
2023/12/08 05:54:44;;;;;;;;;;;;;;;1.58;100.00;100510.38;5063303;28;19920;-75
2023/12/08 05:57:09;;;;;;;;;;;;;;;1.70;100.00;100511.50;5034533;28;20287;-74
2023/12/08 05:59:53;;;;;;;;;;;;;;;1.70;100.00;100518.38;5050305;28;19921;-74
2023/12/08 06:02:19;;;;;;;;;;;;;;;1.71;100.00;100512.34;5041364;28;19918;-74
2023/12/08 06:04:44;;;;;;;;;;;;;;;1.85;100.00;100510.03;5029786;28;19925;-74
2023/12/08 06:07:10;;;;;;;;;;;;;;;1.81;100.00;100510.81;5037171;28;19928;-73
2023/12/08 06:09:36;;;;;;;;;;;;;;;1.76;100.00;100515.06;5051835;28;19960;-74
2023/12/08 06:12:02;;;;;;;;;;;;;;;1.70;100.00;100508.06;5046110;28;19979;-74
2023/12/08 06:14:27;;;;;;;;;;;;;;;1.77;100.00;100499.56;5048674;28;19947;-74
2023/12/08 06:16:53;;;;;;;;;;;;;;;1.71;100.00;100499.44;5025946;28;20051;-74
2023/12/08 06:19:18;;;;;;;;;;;;;;;1.78;100.00;100500.44;5050096;28;20294;-74
2023/12/08 06:21:44;;;;;;;;;;;;;;;1.88;100.00;100499.75;5047663;28;19936;-74
2023/12/08 06:24:09;;;;;;;;;;;;;;;1.88;100.00;100507.50;5049339;28;19917;-73
2023/12/08 06:26:36;;;;;;;;;;;;;;;1.94;100.00;100505.06;5049301;28;19921;-74
2023/12/08 06:29:02;;;;;;;;;;;;;;;1.83;100.00;100507.44;5049684;28;20267;-74
2023/12/08 06:31:47;;;;;;;;;;;;;;;1.88;100.00;100510.97;5049727;28;19925;-74
2023/12/08 06:34:17;;;;;;;;;;;;;;;1.79;100.00;100517.69;5049179;28;19913;-74
2023/12/08 06:36:46;;;;;;;;;;;;;;;2.08;100.00;100532.03;5048730;28;20007;-73
2023/12/08 06:39:32;;;;;;;;;;;;;;;1.99;100.00;100524.09;5035236;28;20279;-74
2023/12/08 06:41:57;;;;;;;;;;;;;;;2.06;100.00;100525.94;5032021;28;19913;-74
2023/12/08 06:44:22;;;;;;;;;;;;;;;1.99;100.00;100518.06;5037857;28;20068;-74
2023/12/08 06:46:48;;;;;;;;;;;;;;;2.07;100.00;100509.59;5032744;28;19924;-74
2023/12/08 06:52:16;;;;;;;;;;;;;;;1.99;100.00;100521.50;5033846;28;19920;-74
2023/12/08 06:57:44;;;;;;;;;;;;;;;1.97;100.00;100518.03;5045462;28;19920;-74
2023/12/08 07:00:29;;;;;;;;;;;;;;;2.09;100.00;100527.72;5068724;28;19912;-74
2023/12/08 07:03:13;;;;;;;;;;;;;;;1.99;100.00;100533.56;5051838;28;19967;-74
2023/12/08 07:05:38;;;;;;;;;;;;;;;2.15;100.00;100537.28;5034258;28;19992;-74
2023/12/08 07:08:05;;;;;;;;;;;;;;;2.07;100.00;100537.16;5031804;28;20264;-74
2023/12/08 07:10:31;;;;;;;;;;;;;;;2.14;100.00;100532.94;5031889;28;19925;-74
2023/12/08 07:12:56;;;;;;;;;;;;;;;2.27;100.00;100534.94;5031539;28;19925;-74
2023/12/08 07:15:21;;;;;;;;;;;;;;;2.23;100.00;100536.56;5048622;28;19963;-74
2023/12/08 07:17:48;;;;;;;;;;;;;;;2.19;100.00;100526.16;5048070;28;20405;-74
2023/12/08 07:20:13;;;;;;;;;;;;;;;2.27;100.00;100532.34;5031895;28;20332;-75
2023/12/08 07:22:40;;;;;;;;;;;;;;;2.26;100.00;100530.59;5041186;28;20015;-74
2023/12/08 07:25:07;;;;;;;;;;;;;;;2.14;100.00;100540.72;5032666;28;20351;-74
2023/12/08 07:27:32;;;;;;;;;;;;;;;2.09;100.00;100540.63;5012817;28;19914;-74
2023/12/08 07:29:57;;;;;;;;;;;;;;;2.27;100.00;100532.34;5047945;28;19913;-73
2023/12/08 07:32:43;;;;;;;;;;;;;;;2.12;100.00;100538.09;5042098;28;20418;-74
2023/12/08 07:35:08;;;;;;;;;;;;;;;2.17;100.00;100535.59;5053977;28;20383;-74
2023/12/08 07:37:37;;;;;;;;;;;;;;;2.18;100.00;100543.38;5028654;28;19963;-74
2023/12/08 07:40:05;;;;;;;;;;;;;;;2.20;100.00;100546.88;5040886;28;20447;-74
2023/12/08 07:42:50;;;;;;;;;;;;;;;2.20;100.00;100546.88;5043154;28;19921;-75
2023/12/08 07:45:15;;;;;;;;;;;;;;;2.17;100.00;100553.69;5051660;28;20350;-75
2023/12/08 07:47:41;;;;;;;;;;;;;;;2.18;100.00;100553.72;5052033;28;19924;-75
2023/12/08 07:50:07;;;;;;;;;;;;;;;2.24;100.00;100563.28;5051460;28;20050;-75
2023/12/08 07:52:32;;;;;;;;;;;;;;;2.25;100.00;100563.31;5056269;28;19917;-75
2023/12/08 07:54:57;;;;;;;;;;;;;;;2.35;100.00;100556.59;5049849;28;19913;-75
2023/12/08 07:57:23;;;;;;;;;;;;;;;2.31;100.00;100561.69;5049132;28;19921;-75
2023/12/08 07:59:48;;;;;;;;;;;;;;;2.33;100.00;100565.16;5049447;28;19917;-75
2023/12/08 08:02:13;;;;;;;;;;;;;;;2.31;100.00;100574.63;5047499;28;19913;-75
2023/12/08 08:04:39;;;;;;;;;;;;;;;2.26;100.00;100569.38;5052425;28;19921;-75
2023/12/08 08:07:04;;;;;;;;;;;;;;;2.33;100.00;100573.81;5031340;28;19921;-75
2023/12/08 08:09:30;;;;;;;;;;;;;;;2.29;100.00;100574.59;5038217;28;19923;-75
2023/12/08 08:11:56;;;;;;;;;;;;;;;2.33;100.00;100576.41;5030285;28;19960;-75
2023/12/08 08:14:21;;;;;;;;;;;;;;;2.35;100.00;100581.59;5048450;28;19955;-75
2023/12/08 08:16:47;;;;;;;;;;;;;;;2.26;100.00;100582.31;5031191;28;20076;-75
2023/12/08 08:19:13;;;;;;;;;;;;;;;2.45;100.00;100582.63;5046508;28;19917;-74
2023/12/08 08:21:38;;;;;;;;;;;;;;;2.31;100.00;100577.22;5046305;28;19913;-74
2023/12/08 08:24:03;;;;;;;;;;;;;;;2.27;100.00;100573.72;5036665;28;20055;-75
2023/12/08 08:26:29;;;;;;;;;;;;;;;2.39;100.00;100578.22;5055974;28;20406;-74
2023/12/08 08:28:54;;;;;;;;;;;;;;;2.32;100.00;100571.19;5067584;28;19932;-74
2023/12/08 08:31:19;;;;;;;;;;;;;;;2.42;100.00;100581.72;5038894;28;20492;-74
2023/12/08 08:33:46;;;;;;;;;;;;;;;2.47;100.00;100576.66;5013936;28;20423;-75
2023/12/08 08:36:11;;;;;;;;;;;;;;;2.47;100.00;100568.88;5032879;28;19921;-75
2023/12/08 08:38:43;;;;;;;;;;;;;;;2.52;100.00;100574.13;5050715;28;19979;-75
2023/12/08 08:41:08;;;;;;;;;;;;;;;2.49;100.00;100574.09;5039322;28;20002;-75
2023/12/08 08:43:36;;;;;;;;;;;;;;;2.54;100.00;100575.91;5033965;28;19972;-75
2023/12/08 08:46:01;;;;;;;;;;;;;;;2.59;100.00;100601.84;5056715;28;20309;-75
2023/12/08 08:48:27;;;;;;;;;;;;;;;2.62;100.00;100590.69;5044177;28;20019;-75
2023/12/08 08:50:52;;;;;;;;;;;;;;;2.71;100.00;100596.00;5016898;28;19923;-75
2023/12/08 08:53:17;;;;;;;;;;;;;;;2.83;100.00;100585.84;5036507;28;20020;-75
2023/12/08 08:55:46;;;;;;;;;;;;;;;2.71;100.00;100589.09;5027762;28;19917;-75
2023/12/08 08:58:11;;;;;;;;;;;;;;;2.75;100.00;100588.31;5051972;28;19917;-75
2023/12/08 09:00:36;;;;;;;;;;;;;;;2.82;100.00;100599.63;5038815;28;19924;-75
2023/12/08 09:03:02;;;;;;;;;;;;;;;2.88;100.00;100598.88;5033239;28;19967;-75
2023/12/08 09:05:34;;;;;;;;;;;;;;;2.83;100.00;100601.38;5049749;28;20389;-75
2023/12/08 09:07:59;;;;;;;;;;;;;;;2.88;100.00;100607.50;5035326;28;19924;-75
2023/12/08 09:10:24;;;;;;;;;;;;;;;2.95;100.00;100605.88;5050248;28;20405;-75
2023/12/08 09:12:51;;;;;;;;;;;;;;;2.91;100.00;100601.50;5036107;28;19928;-75
2023/12/08 09:15:16;;;;;;;;;;;;;;;2.98;100.00;100605.91;5050287;28;19972;-76
2023/12/08 09:17:41;;;;;;;;;;;;;;;2.98;100.00;100608.50;5056485;28;19916;-76
2023/12/08 09:20:12;;;;;;;;;;;;;;;3.00;100.00;100613.72;5049401;28;19921;-75
2023/12/08 09:22:37;;;;;;;;;;;;;;;3.07;100.00;100616.41;5033659;28;19918;-75
2023/12/08 09:25:02;;;;;;;;;;;;;;;3.08;100.00;100618.16;5049588;28;19921;-75
2023/12/08 09:27:28;;;;;;;;;;;;;;;3.17;100.00;100619.16;5031808;28;19982;-75
2023/12/08 09:29:53;;;;;;;;;;;;;;;3.17;100.00;100620.00;5049395;28;19917;-75
2023/12/08 09:32:19;;;;;;;;;;;;;;;3.20;100.00;100611.41;5015693;28;20020;-75
2023/12/08 09:34:46;;;;;;;;;;;;;;;3.25;100.00;100609.78;5020991;28;19922;-75
2023/12/08 09:37:12;;;;;;;;;;;;;;;3.32;100.00;100614.19;5031341;28;20267;-75
2023/12/08 09:39:37;;;;;;;;;;;;;;;3.37;100.00;100615.13;5048748;28;19954;-75
2023/12/08 09:42:08;;;;;;;;;;;;;;;3.43;100.00;100619.50;5048291;28;19918;-75
2023/12/08 09:44:33;;;;;;;;;;;;;;;3.50;100.00;100613.56;5032278;28;19925;-75
2023/12/08 09:47:02;;;;;;;;;;;;;;;3.55;100.00;100617.09;5048159;28;19917;-75
2023/12/08 09:49:33;;;;;;;;;;;;;;;3.62;100.00;100626.69;5049010;28;19913;-75
2023/12/08 09:51:59;;;;;;;;;;;;;;;3.70;100.00;100629.38;5048319;28;19924;-75
2023/12/08 09:54:24;;;;;;;;;;;;;;;3.76;100.00;100619.06;5048843;28;19917;-75
2023/12/08 09:56:54;;;;;;;;;;;;;;;3.84;100.00;100616.59;5033271;28;19975;-75
2023/12/08 09:59:34;;;;;;;;;;;;;;;3.95;100.00;100624.50;5055387;28;20409;-75
2023/12/08 10:02:00;;;;;;;;;;;;;;;4.07;100.00;100629.84;5048773;28;19924;-75
2023/12/08 10:04:26;;;;;;;;;;;;;;;4.17;100.00;100625.63;5049051;28;19917;-75
2023/12/08 10:06:52;;;;;;;;;;;;;;;4.29;100.00;100624.88;5048207;28;19931;-75
2023/12/08 10:09:22;;;;;;;;;;;;;;;4.37;100.00;100637.91;5048194;28;20275;-75
2023/12/08 10:11:47;;;;;;;;;;;;;;;4.47;100.00;100634.59;5062001;28;19920;-76
2023/12/08 10:14:14;;;;;;;;;;;;;;;4.55;100.00;100629.47;5053936;28;19971;-76
2023/12/08 10:16:39;;;;;;;;;;;;;;;4.59;100.00;100629.50;5049420;28;20004;-76
2023/12/08 10:19:05;;;;;;;;;;;;;;;4.67;100.00;100621.81;5048895;28;19960;-76
2023/12/08 10:21:31;;;;;;;;;;;;;;;4.75;100.00;100627.91;5047895;28;20042;-76
2023/12/08 10:24:03;;;;;;;;;;;;;;;4.84;100.00;100632.31;5044962;28;20391;-76
2023/12/08 10:26:29;;;;;;;;;;;;;;;4.90;100.00;100626.28;5031965;28;20003;-75
2023/12/08 10:28:58;;;;;;;;;;;;;;;4.93;100.00;100628.91;5063448;28;20405;-75
2023/12/08 10:31:24;;;;;;;;;;;;;;;4.95;100.00;100622.88;5039358;28;19932;-75
2023/12/08 10:33:50;;;;;;;;;;;;;;;4.99;100.00;100614.25;5048324;28;19917;-75
2023/12/08 10:36:16;;;;;;;;;;;;;;;5.03;100.00;100616.03;5047989;28;19921;-75
2023/12/08 10:38:41;;;;;;;;;;;;;;;5.06;100.00;100627.28;5054479;28;19924;-76
2023/12/08 10:41:08;;;;;;;;;;;;;;;5.10;100.00;100632.53;5043117;28;19921;-75
2023/12/08 10:43:36;;;;;;;;;;;;;;;5.16;100.00;100639.50;5053962;28;19995;-76
2023/12/08 10:46:02;;;;;;;;;;;;;;;5.20;100.00;100638.63;5047489;28;19927;-76
2023/12/08 10:48:28;;;;;;;;;;;;;;;5.25;100.00;100636.09;5035921;28;19921;-76
2023/12/08 10:50:53;;;;;;;;;;;;;;;5.31;100.00;100638.72;5056250;28;19917;-76
2023/12/08 10:53:22;;;;;;;;;;;;;;;5.35;100.00;100623.16;5050350;28;19964;-75
2023/12/08 10:56:01;;;;;;;;;;;;;;;5.40;100.00;100630.97;5054598;28;19913;-76
2023/12/08 10:58:28;;;;;;;;;;;;;;;5.44;100.00;100624.94;5030968;28;20008;-76
2023/12/08 11:00:54;;;;;;;;;;;;;;;5.48;100.00;100624.09;5030930;28;20441;-75
2023/12/08 11:03:20;;;;;;;;;;;;;;;5.55;100.00;100622.41;5047760;28;19913;-76
2023/12/08 11:05:49;;;;;;;;;;;;;;;5.61;100.00;100629.38;5031083;28;20338;-76
2023/12/08 11:08:17;;;;;;;;;;;;;;;5.66;100.00;100625.06;5047031;28;20027;-76
2023/12/08 11:10:49;;;;;;;;;;;;;;;5.72;100.00;100627.72;5042816;28;19923;-76
2023/12/08 11:13:23;;;;;;;;;;;;;;;5.76;100.00;100621.66;5058053;28;19972;-76
2023/12/08 11:16:01;;;;;;;;;;;;;;;5.81;100.00;100632.06;5046133;28;19925;-76
2023/12/08 11:18:28;;;;;;;;;;;;;;;5.85;100.00;100634.69;5041981;28;19921;-76
2023/12/08 11:20:54;;;;;;;;;;;;;;;5.89;100.00;100625.19;5047704;28;19964;-76
2023/12/08 11:23:20;;;;;;;;;;;;;;;5.89;100.00;100635.59;5047458;28;20248;-76
2023/12/08 11:25:48;;;;;;;;;;;;;;;5.89;100.00;100633.84;5020564;28;19929;-76
2023/12/08 11:28:27;;;;;;;;;;;;;;;5.95;100.00;100632.13;5050193;28;20355;-76
2023/12/08 11:30:55;;;;;;;;;;;;;;;5.96;100.00;100642.56;5055249;28;19963;-76
2023/12/08 11:33:20;;;;;;;;;;;;;;;6.00;100.00;100638.25;5064693;28;20429;-76
2023/12/08 11:35:49;;;;;;;;;;;;;;;6.01;100.00;100634.78;5032300;28;19967;-76
2023/12/08 11:38:24;;;;;;;;;;;;;;;6.04;100.00;100645.19;5031738;28;19925;-76
2023/12/08 11:40:56;;;;;;;;;;;;;;;6.07;100.00;100645.22;5047153;28;20306;-76
2023/12/08 11:43:22;;;;;;;;;;;;;;;6.10;100.00;100632.22;5053944;28;19964;-76
2023/12/08 11:45:49;;;;;;;;;;;;;;;6.12;100.00;100633.09;5046998;28;20383;-76
2023/12/08 11:48:14;;;;;;;;;;;;;;;6.14;100.00;100636.56;5060617;28;19916;-76
2023/12/08 11:50:39;;;;;;;;;;;;;;;6.17;100.00;100640.91;5030911;28;20336;-76
2023/12/08 11:53:05;;;;;;;;;;;;;;;6.19;100.00;100642.66;5025346;28;19920;-76
2023/12/08 11:55:30;;;;;;;;;;;;;;;6.22;100.00;100650.47;5039186;28;20386;-76
2023/12/08 11:57:59;;;;;;;;;;;;;;;6.26;100.00;100650.47;5045953;28;19982;-76
2023/12/08 12:00:25;;;;;;;;;;;;;;;6.30;100.00;100654.84;5039759;28;19917;-76
2023/12/08 12:02:51;;;;;;;;;;;;;;;6.31;100.00;100657.44;5063970;28;19917;-76
2023/12/08 12:05:17;;;;;;;;;;;;;;;6.32;100.00;100656.56;5050398;28;20426;-76
2023/12/08 12:07:47;;;;;;;;;;;;;;;6.32;100.00;100655.69;5050669;28;20022;-76
2023/12/08 12:10:13;;;;;;;;;;;;;;;6.35;100.00;100663.50;5052136;28;19927;-76
2023/12/08 12:12:44;;;;;;;;;;;;;;;6.36;100.00;100673.06;5037354;28;19931;-76
2023/12/08 12:15:10;;;;;;;;;;;;;;;6.38;100.00;100655.72;5058183;28;19917;-76
2023/12/08 12:17:36;;;;;;;;;;;;;;;6.39;100.00;100657.44;5040569;28;20269;-76
2023/12/08 12:20:02;;;;;;;;;;;;;;;6.41;100.00;100660.94;5050207;28;20302;-76
2023/12/08 12:22:27;;;;;;;;;;;;;;;6.43;100.00;100669.59;5034184;28;19925;-76
2023/12/08 12:24:52;;;;;;;;;;;;;;;6.46;100.00;100664.41;5037999;28;19925;-76
2023/12/08 12:27:18;;;;;;;;;;;;;;;6.48;100.00;100664.41;5051315;28;19921;-76
2023/12/08 12:29:44;;;;;;;;;;;;;;;6.50;100.00;100675.69;5050582;28;20284;-76
2023/12/08 12:32:10;;;;;;;;;;;;;;;6.53;100.00;100663.53;5034072;28;20333;-76
2023/12/08 12:34:36;;;;;;;;;;;;;;;6.57;100.00;100670.50;5038436;28;20024;-76
2023/12/08 12:37:01;;;;;;;;;;;;;;;6.62;100.00;100667.03;5050411;28;20445;-76
2023/12/08 12:39:27;;;;;;;;;;;;;;;6.62;100.00;100664.44;5050309;28;20008;-76
2023/12/08 12:41:59;;;;;;;;;;;;;;;6.65;100.00;100659.22;5040974;28;19925;-77
2023/12/08 12:44:38;;;;;;;;;;;;;;;6.69;100.00;100666.19;5050165;28;19921;-77
2023/12/08 12:47:03;;;;;;;;;;;;;;;6.73;100.00;100662.72;5032702;28;19929;-76
2023/12/08 12:49:28;;;;;;;;;;;;;;;6.78;100.00;100676.63;5035731;28;19921;-76
2023/12/08 12:51:54;;;;;;;;;;;;;;;6.78;100.00;100676.63;5054614;28;19931;-77
2023/12/08 12:54:35;;;;;;;;;;;;;;;6.79;100.00;100678.34;5049916;28;20279;-77
2023/12/08 12:57:01;;;;;;;;;;;;;;;6.82;100.00;100687.91;5042640;28;20434;-76
2023/12/08 12:59:26;;;;;;;;;;;;;;;6.85;100.00;100683.59;5048864;28;19917;-77
2023/12/08 13:01:54;;;;;;;;;;;;;;;6.90;100.00;100689.66;5048740;28;20019;-76
2023/12/08 13:04:26;;;;;;;;;;;;;;;6.94;100.00;100683.56;5032318;28;20433;-77
2023/12/08 13:06:51;;;;;;;;;;;;;;;7.00;100.00;100689.66;5044176;28;19925;-77
2023/12/08 13:09:26;;;;;;;;;;;;;;;7.04;100.00;100691.38;5032298;28;19921;-77
2023/12/08 13:11:51;;;;;;;;;;;;;;;7.05;100.00;100695.72;5031553;28;20342;-77
2023/12/08 13:14:16;;;;;;;;;;;;;;;7.07;100.00;100689.66;5032300;28;19922;-77
2023/12/08 13:16:41;;;;;;;;;;;;;;;7.07;100.00;100694.88;5048982;28;20353;-77
2023/12/08 13:19:07;;;;;;;;;;;;;;;7.07;100.00;100699.22;5032567;28;20429;-77
2023/12/08 13:21:32;;;;;;;;;;;;;;;7.09;100.00;100700.09;5033646;28;19963;-77
2023/12/08 13:23:57;;;;;;;;;;;;;;;7.14;100.00;100710.50;5031646;28;19917;-77
2023/12/08 13:26:23;;;;;;;;;;;;;;;7.16;100.00;100704.44;5047777;28;20335;-76
2023/12/08 13:28:48;;;;;;;;;;;;;;;7.19;100.00;100709.63;5028671;28;19933;-75
2023/12/08 13:31:13;;;;;;;;;;;;;;;7.23;100.00;100716.59;5032088;28;19971;-74
2023/12/08 13:33:39;;;;;;;;;;;;;;;7.26;100.00;100713.97;5048813;28;19917;-75